Time;durP1;ratioP1;P1;durP2;ratioP2;P2;SDS_P1;SDS_P2;PMS_P1;PMS_P2;Temp;Humidity;BMP_temperature;BMP_pressure;BME280_temperature;BME280_humidity;BME280_pressure;Samples;Min_cycle;Max_cycle;Signal;HPM_P1;HPM_P2
2022/01/03 00:02:09;;;;;;;6.87;1.80;;;;;;;9.86;92.57;95901.81;5070131;28;20880;-73
2022/01/03 00:04:37;;;;;;;4.65;1.73;;;;;;;9.95;91.71;95901.28;5070199;28;24454;-73
2022/01/03 00:07:04;;;;;;;5.50;1.90;;;;;;;9.88;91.98;95892.22;5070262;28;24507;-73
2022/01/03 00:09:31;;;;;;;7.68;1.92;;;;;;;9.91;91.50;95884.28;5070300;28;20754;-73
2022/01/03 00:11:57;;;;;;;6.88;1.65;;;;;;;9.91;91.76;95890.28;5070157;28;24443;-73
2022/01/03 00:14:28;;;;;;;5.70;1.80;;;;;;;9.87;92.10;95875.03;5070398;28;20753;-73
2022/01/03 00:16:54;;;;;;;10.00;1.95;;;;;;;9.82;92.62;95862.34;5069954;28;20711;-73
2022/01/03 00:19:23;;;;;;;8.18;2.03;;;;;;;9.72;93.24;95874.16;5070078;28;24481;-73
2022/01/03 00:21:54;;;;;;;4.10;1.73;;;;;;;9.78;92.63;95883.31;5070184;28;20798;-73
2022/01/03 00:24:26;;;;;;;6.07;2.00;;;;;;;9.74;92.55;95887.00;5070183;28;24417;-73
2022/01/03 00:27:00;;;;;;;9.52;1.77;;;;;;;9.74;91.51;95887.00;5069974;28;21039;-73
2022/01/03 00:29:30;;;;;;;8.43;1.50;;;;;;;9.83;90.39;95876.13;5070095;28;21294;-73
2022/01/03 00:31:58;;;;;;;6.75;1.70;;;;;;;9.83;89.70;95870.97;5070055;28;24439;-73
2022/01/03 00:34:27;;;;;;;5.32;1.90;;;;;;;9.76;90.38;95873.06;5070015;28;24526;-74
2022/01/03 00:36:56;;;;;;;3.88;1.63;;;;;;;9.79;90.21;95893.59;5069832;28;20777;-73
2022/01/03 00:39:22;;;;;;;8.83;2.10;;;;;;;9.74;90.12;95874.91;5070050;28;20868;-73
2022/01/03 00:41:49;;;;;;;8.75;2.10;;;;;;;9.75;89.93;95876.56;5069848;28;21571;-73
2022/01/03 00:44:16;;;;;;;4.15;1.70;;;;;;;9.74;90.24;95869.72;5070156;28;20843;-73
2022/01/03 00:46:43;;;;;;;5.50;1.90;;;;;;;9.63;91.20;95866.91;5069558;28;21100;-73
2022/01/03 00:49:09;;;;;;;6.75;2.03;;;;;;;9.63;90.65;95874.69;5070121;28;20761;-73
2022/01/03 00:51:37;;;;;;;9.67;1.90;;;;;;;9.66;90.60;95866.75;5069564;28;24439;-73
2022/01/03 00:54:04;;;;;;;7.40;1.85;;;;;;;9.69;90.50;95879.50;5069843;28;20806;-73
2022/01/03 00:56:36;;;;;;;9.90;2.30;;;;;;;9.71;90.63;95880.25;5069762;28;20765;-73
2022/01/03 00:59:07;;;;;;;8.57;1.90;;;;;;;9.62;91.38;95886.78;5070725;28;20709;-73
2022/01/03 01:01:36;;;;;;;4.70;1.93;;;;;;;9.60;91.52;95882.59;5073585;28;24515;-73
2022/01/03 01:04:03;;;;;;;5.70;1.80;;;;;;;9.60;91.20;95893.81;5073689;28;20765;-73
2022/01/03 01:06:34;;;;;;;5.70;1.90;;;;;;;9.61;91.14;95895.47;5073047;28;24413;-73
2022/01/03 01:09:04;;;;;;;4.43;1.52;;;;;;;9.68;90.77;95889.03;5073226;28;20684;-73
2022/01/03 01:11:32;;;;;;;3.97;1.40;;;;;;;9.60;91.60;95890.38;5073431;28;20730;-74
2022/01/03 01:13:59;;;;;;;6.00;1.92;;;;;;;9.57;92.49;95895.75;5073126;28;21310;-73
2022/01/03 01:16:26;;;;;;;6.53;1.85;;;;;;;9.51;93.06;95888.31;5072968;28;20761;-73
2022/01/03 01:18:53;;;;;;;4.63;1.58;;;;;;;9.54;93.01;95893.31;5073167;28;24414;-73
2022/01/03 01:21:20;;;;;;;4.90;1.80;;;;;;;9.43;94.02;95881.81;5073060;28;21159;-73
2022/01/03 01:23:49;;;;;;;6.80;1.70;;;;;;;9.40;94.24;95882.00;5073153;28;24414;-74
2022/01/03 01:29:04;;;;;;;4.47;1.65;;;;;;;9.42;94.07;95911.19;5073056;28;21095;-73
2022/01/03 01:31:34;;;;;;;5.47;1.48;;;;;;;9.47;93.75;95912.69;5072721;28;25026;-73
2022/01/03 01:34:03;;;;;;;4.87;1.60;;;;;;;9.45;93.93;95920.50;5072675;28;20711;-73
2022/01/03 01:36:31;;;;;;;4.38;1.67;;;;;;;9.47;93.94;95934.19;5072844;28;20753;-73
2022/01/03 01:39:01;;;;;;;6.90;1.70;;;;;;;9.48;93.92;95925.50;5073112;28;20768;-73
2022/01/03 01:41:30;;;;;;;5.35;1.92;;;;;;;9.33;96.45;95950.44;5073031;28;20711;-73
2022/01/03 01:43:59;;;;;;;4.63;1.80;;;;;;;9.40;96.44;95953.53;5072661;28;20783;-74
2022/01/03 01:46:27;;;;;;;3.92;1.58;;;;;;;9.27;100.00;95963.72;5072206;28;20845;-73
2022/01/03 01:48:55;;;;;;;7.68;1.90;;;;;;;9.13;100.00;95958.47;5072600;28;20761;-73
2022/01/03 01:51:24;;;;;;;5.25;1.77;;;;;;;9.01;100.00;95954.81;5072711;28;20811;-73
2022/01/03 01:53:53;;;;;;;4.70;1.80;;;;;;;8.91;100.00;95938.94;5072202;28;24423;-73
2022/01/03 01:56:21;;;;;;;4.00;1.67;;;;;;;8.85;100.00;95939.28;5072200;28;20748;-73
2022/01/03 01:59:11;;;;;;;5.68;1.90;;;;;;;8.82;100.00;95938.59;5072288;28;21319;-73
2022/01/03 02:01:50;;;;;;;4.78;1.80;;;;;;;8.79;100.00;95941.34;5072581;28;20703;-73
2022/01/03 02:04:34;;;;;;;5.38;1.73;;;;;;;8.75;100.00;95945.00;5072467;28;20735;-73
2022/01/03 02:07:19;;;;;;;5.32;1.80;;;;;;;8.69;100.00;95939.25;5072052;28;20669;-73
2022/01/03 02:09:54;;;;;;;4.30;1.65;;;;;;;8.73;100.00;95935.59;5072158;28;21113;-73
2022/01/03 02:12:21;;;;;;;3.45;1.60;;;;;;;8.70;100.00;95953.00;5071223;28;20792;-74
2022/01/03 02:14:53;;;;;;;5.93;1.92;;;;;;;8.77;100.00;95943.19;5072113;28;24419;-73
2022/01/03 02:17:19;;;;;;;5.93;1.97;;;;;;;8.79;100.00;95937.03;5071953;28;20762;-73
2022/01/03 02:20:01;;;;;;;4.83;1.90;;;;;;;8.81;100.00;95945.53;5071758;28;24488;-72
2022/01/03 02:22:27;;;;;;;5.47;1.98;;;;;;;8.76;100.00;95952.69;5071653;28;24446;-73
2022/01/03 02:24:53;;;;;;;4.05;1.63;;;;;;;8.79;100.00;95960.28;5072021;28;20757;-73
2022/01/03 02:27:20;;;;;;;8.32;1.88;;;;;;;8.84;100.00;95965.19;5071524;28;24415;-73
2022/01/03 02:29:46;;;;;;;4.13;1.60;;;;;;;8.93;100.00;95956.94;5071712;28;24427;-73
2022/01/03 02:32:13;;;;;;;6.07;2.30;;;;;;;8.92;100.00;95961.28;5071384;28;24454;-73
2022/01/03 02:34:39;;;;;;;6.78;2.90;;;;;;;8.87;100.00;95947.78;5071664;28;24426;-73
2022/01/03 02:37:07;;;;;;;8.60;3.58;;;;;;;8.89;100.00;95955.44;5071213;28;24948;-73
2022/01/03 02:39:34;;;;;;;9.77;4.63;;;;;;;8.92;100.00;95956.09;5071754;28;20758;-73
2022/01/03 02:42:00;;;;;;;9.48;4.32;;;;;;;8.87;100.00;95944.38;5071481;28;20792;-73
2022/01/03 02:44:27;;;;;;;14.15;4.93;;;;;;;8.89;100.00;95940.78;5071639;28;20888;-73
2022/01/03 02:46:53;;;;;;;7.13;3.13;;;;;;;8.93;100.00;95944.03;5070843;28;24422;-73
2022/01/03 02:49:20;;;;;;;8.32;2.67;;;;;;;8.96;100.00;95943.88;5071664;28;20750;-73
2022/01/03 02:51:46;;;;;;;7.78;3.03;;;;;;;8.93;100.00;95938.84;5071167;28;24445;-73
2022/01/03 02:54:15;;;;;;;9.90;3.33;;;;;;;8.94;100.00;95941.38;5071367;28;21210;-73
2022/01/03 02:56:43;;;;;;;6.53;3.50;;;;;;;9.01;100.00;95946.19;5070860;28;24411;-73
2022/01/03 02:59:12;;;;;;;8.10;3.00;;;;;;;9.00;100.00;95945.38;5071073;28;24494;-73
2022/01/03 03:01:41;;;;;;;7.43;2.33;;;;;;;8.96;100.00;95934.38;5071584;28;20849;-73
2022/01/03 03:04:08;;;;;;;3.75;1.80;;;;;;;8.96;100.00;95949.03;5071332;28;20833;-73
2022/01/03 03:06:34;;;;;;;5.25;2.17;;;;;;;8.96;99.86;95952.44;5070817;28;24476;-73
2022/01/03 03:09:04;;;;;;;5.93;1.90;;;;;;;9.03;98.01;95970.22;5070981;28;24422;-73
2022/01/03 03:11:32;;;;;;;5.18;1.85;;;;;;;9.04;96.73;95962.38;5070931;28;21216;-73
2022/01/03 03:13:58;;;;;;;5.93;1.83;;;;;;;9.10;95.78;95950.88;5070808;28;20807;-73
2022/01/03 03:16:25;;;;;;;10.47;2.00;;;;;;;9.07;96.86;95962.22;5070811;28;24519;-73
2022/01/03 03:18:52;;;;;;;8.85;2.40;;;;;;;9.08;95.99;95947.53;5070994;28;20852;-73
2022/01/03 03:21:18;;;;;;;6.85;1.90;;;;;;;9.11;95.06;95957.72;5070735;28;24469;-73
2022/01/03 03:23:45;;;;;;;7.95;1.98;;;;;;;9.04;95.79;95958.94;5070675;28;24430;-73
2022/01/03 03:26:12;;;;;;;4.40;1.70;;;;;;;9.04;95.64;95956.38;5070336;28;24828;-73
2022/01/03 03:28:40;;;;;;;4.80;1.97;;;;;;;9.00;94.44;95955.69;5070728;28;20819;-73
2022/01/03 03:31:07;;;;;;;5.78;2.00;;;;;;;9.05;92.62;95948.56;5070704;28;21324;-73
2022/01/03 03:33:33;;;;;;;7.25;1.95;;;;;;;9.09;92.55;95954.38;5070480;28;24415;-74
2022/01/03 03:36:00;;;;;;;8.73;2.42;;;;;;;9.11;92.04;95960.28;5070469;28;24428;-73
2022/01/03 03:38:28;;;;;;;5.80;2.00;;;;;;;9.12;91.13;95952.47;5070583;28;24425;-73
2022/01/03 03:40:55;;;;;;;7.27;2.27;;;;;;;9.08;91.67;95948.38;5070541;28;21454;-72
2022/01/03 03:43:21;;;;;;;6.15;2.17;;;;;;;9.03;92.19;95955.53;5070821;28;21166;-73
2022/01/03 03:45:50;;;;;;;6.72;1.83;;;;;;;9.00;92.21;95935.03;5070185;28;24433;-72
2022/01/03 03:48:17;;;;;;;10.68;2.03;;;;;;;9.02;92.19;95940.97;5070520;28;24473;-73
2022/01/03 03:50:44;;;;;;;6.23;2.03;;;;;;;8.99;92.69;95935.13;5070470;28;24427;-73
2022/01/03 03:53:11;;;;;;;9.70;1.90;;;;;;;8.97;92.56;95932.59;5070088;28;24457;-73
2022/01/03 03:55:37;;;;;;;6.75;2.60;;;;;;;8.95;92.80;95937.03;5069925;28;24433;-73
2022/01/03 03:58:05;;;;;;;8.50;2.00;;;;;;;8.95;92.76;95939.63;5070380;28;24429;-73
2022/01/03 04:00:33;;;;;;;8.40;2.30;;;;;;;8.85;94.31;95947.03;5070538;28;20766;-73
2022/01/03 04:03:01;;;;;;;9.45;2.40;;;;;;;8.91;92.78;95946.69;5070444;28;20797;-73
2022/01/03 04:05:27;;;;;;;9.82;2.15;;;;;;;8.88;93.55;95935.69;5070140;28;24430;-74
2022/01/03 04:07:54;;;;;;;5.72;1.90;;;;;;;8.86;93.74;95930.63;5069979;28;24414;-74
2022/01/03 04:10:20;;;;;;;7.63;1.92;;;;;;;8.91;93.01;95915.72;5070314;28;24421;-74
2022/01/03 04:12:48;;;;;;;8.07;2.03;;;;;;;8.93;93.22;95925.94;5070174;28;24501;-73
2022/01/03 04:15:14;;;;;;;5.70;2.03;;;;;;;8.86;94.85;95927.19;5070256;28;24461;-73
2022/01/03 04:17:41;;;;;;;8.02;2.40;;;;;;;8.77;97.19;95925.94;5070016;28;24410;-73
2022/01/03 04:20:12;;;;;;;5.72;2.08;;;;;;;8.76;97.32;95921.69;5070152;28;24426;-73
2022/01/03 04:22:38;;;;;;;6.55;2.33;;;;;;;8.74;97.78;95928.69;5069980;28;20798;-73
2022/01/03 04:25:06;;;;;;;4.55;1.83;;;;;;;8.76;96.69;95911.38;5070191;28;24418;-73
2022/01/03 04:27:32;;;;;;;7.28;2.05;;;;;;;8.83;96.55;95910.13;5069734;28;24430;-73
2022/01/03 04:29:59;;;;;;;6.35;2.13;;;;;;;8.80;96.64;95912.03;5070132;28;24430;-73
2022/01/03 04:32:25;;;;;;;7.07;2.10;;;;;;;8.76;97.79;95926.03;5069912;28;24517;-73
2022/01/03 04:34:52;;;;;;;6.70;2.10;;;;;;;8.93;94.35;95903.53;5071922;28;24419;-73
2022/01/03 04:37:20;;;;;;;4.85;1.88;;;;;;;9.00;94.23;95910.94;5073455;28;24473;-73
2022/01/03 04:39:46;;;;;;;6.75;2.13;;;;;;;8.97;93.30;95919.69;5074091;28;20913;-72
2022/01/03 04:42:13;;;;;;;8.82;2.25;;;;;;;8.94;94.10;95907.78;5073850;28;24820;-73
2022/01/03 04:44:39;;;;;;;11.00;2.38;;;;;;;9.04;91.35;95917.63;5073735;28;24469;-73
2022/01/03 04:47:06;;;;;;;9.82;2.45;;;;;;;9.05;91.87;95927.88;5073439;28;21291;-73
2022/01/03 04:49:32;;;;;;;7.45;2.08;;;;;;;8.94;93.40;95936.22;5073625;28;24421;-73
2022/01/03 04:51:59;;;;;;;8.95;2.30;;;;;;;8.91;94.61;95935.53;5073371;28;21132;-73
2022/01/03 04:54:26;;;;;;;11.48;2.55;;;;;;;8.87;94.68;95932.28;5073491;28;24975;-73
2022/01/03 04:56:58;;;;;;;9.52;2.13;;;;;;;8.90;93.53;95923.56;5073331;28;20798;-72
2022/01/03 04:59:25;;;;;;;7.90;2.53;;;;;;;8.84;93.79;95935.03;5073674;28;20698;-72
2022/01/03 05:01:51;;;;;;;7.78;2.13;;;;;;;8.85;92.78;95923.78;5073154;28;24963;-72
2022/01/03 05:04:18;;;;;;;6.45;2.22;;;;;;;8.78;93.13;95921.59;5073245;28;24832;-72
2022/01/03 05:06:44;;;;;;;6.70;2.10;;;;;;;8.77;92.90;95938.03;5073020;28;24971;-72
2022/01/03 05:09:11;;;;;;;12.57;2.45;;;;;;;8.81;91.36;95932.59;5073507;28;20763;-72
2022/01/03 05:11:38;;;;;;;10.27;2.33;;;;;;;8.84;91.03;95927.28;5073096;28;24958;-73
2022/01/03 05:14:05;;;;;;;8.63;2.20;;;;;;;8.78;91.66;95927.59;5073201;28;24425;-73
2022/01/03 05:16:31;;;;;;;8.00;1.90;;;;;;;8.85;91.80;95944.44;5072928;28;20860;-73
2022/01/03 05:18:58;;;;;;;5.97;1.85;;;;;;;8.83;91.99;95945.44;5072976;28;24450;-74
2022/01/03 05:21:26;;;;;;;8.05;2.20;;;;;;;8.81;91.92;95937.78;5073086;28;24450;-74
2022/01/03 05:23:52;;;;;;;6.03;2.10;;;;;;;8.86;91.42;95948.72;5073102;28;20769;-74
2022/01/03 05:26:19;;;;;;;6.57;2.10;;;;;;;8.79;92.24;95947.38;5072842;28;24425;-73
2022/01/03 05:28:47;;;;;;;8.93;2.40;;;;;;;8.72;93.17;95936.53;5073044;28;24422;-73
2022/01/03 05:31:14;;;;;;;8.80;2.10;;;;;;;8.80;91.91;95922.38;5072679;28;20853;-73
2022/01/03 05:33:41;;;;;;;8.20;2.42;;;;;;;8.73;92.43;95929.59;5072468;28;24569;-73
2022/01/03 05:36:07;;;;;;;8.93;2.47;;;;;;;8.75;92.13;95927.78;5072494;28;24963;-73
2022/01/03 05:38:33;;;;;;;7.57;2.20;;;;;;;8.79;91.86;95936.16;5072625;28;24952;-73
2022/01/03 05:41:00;;;;;;;9.32;2.53;;;;;;;8.79;91.60;95920.69;5072733;28;24419;-73
2022/01/03 05:43:26;;;;;;;8.27;2.50;;;;;;;8.80;91.80;95946.44;5072529;28;24419;-73
2022/01/03 05:45:54;;;;;;;7.55;2.30;;;;;;;8.77;91.50;95940.59;5070861;28;24411;-73
2022/01/03 05:48:20;;;;;;;6.25;1.95;;;;;;;8.79;91.82;95934.44;5072788;28;24457;-73
2022/01/03 05:50:47;;;;;;;7.80;2.20;;;;;;;8.81;90.68;95939.53;5072336;28;24944;-73
2022/01/03 05:53:13;;;;;;;7.32;2.20;;;;;;;8.76;91.23;95950.09;5072201;28;24508;-73
2022/01/03 05:55:40;;;;;;;5.78;1.80;;;;;;;8.71;91.52;95960.69;5072652;28;24426;-73
2022/01/03 05:58:06;;;;;;;9.13;2.45;;;;;;;8.75;91.76;95952.75;5072363;28;24419;-73
2022/01/03 06:00:33;;;;;;;9.53;2.47;;;;;;;8.79;91.66;95956.84;5072219;28;24502;-73
2022/01/03 06:03:00;;;;;;;4.50;1.92;;;;;;;8.80;91.64;95954.19;5072502;28;24438;-75
2022/01/03 06:05:43;;;;;;;8.20;2.13;;;;;;;8.84;91.81;95949.69;5071958;28;25014;-75
2022/01/03 06:08:09;;;;;;;8.43;2.23;;;;;;;8.72;92.13;95946.84;5072311;28;24419;-75
2022/01/03 06:10:40;;;;;;;7.38;2.72;;;;;;;8.74;91.40;95946.75;5072495;28;20764;-76
2022/01/03 06:13:06;;;;;;;8.35;2.30;;;;;;;8.70;91.65;95958.16;5071998;28;24522;-75
2022/01/03 06:15:33;;;;;;;6.88;2.03;;;;;;;8.65;92.20;95948.06;5071982;28;24426;-75
2022/01/03 06:18:01;;;;;;;11.32;2.30;;;;;;;8.67;92.25;95941.06;5072131;28;24473;-75
2022/01/03 06:20:27;;;;;;;7.47;2.00;;;;;;;8.76;91.49;95946.69;5072127;28;24418;-73
2022/01/03 06:22:53;;;;;;;5.20;2.20;;;;;;;8.73;92.49;95948.50;5071411;28;24435;-75
2022/01/03 06:25:20;;;;;;;8.10;2.53;;;;;;;8.67;93.36;95947.97;5071852;28;24485;-76
2022/01/03 06:27:46;;;;;;;10.75;2.67;;;;;;;8.62;93.74;95939.66;5071899;28;24432;-76
2022/01/03 06:30:13;;;;;;;7.65;2.08;;;;;;;8.60;93.75;95944.06;5072034;28;24424;-76
2022/01/03 06:32:40;;;;;;;7.93;2.22;;;;;;;8.65;93.19;95940.34;5071843;28;24533;-75
2022/01/03 06:35:08;;;;;;;10.77;2.40;;;;;;;8.63;93.94;95947.31;5071543;28;24415;-76
2022/01/03 06:37:35;;;;;;;8.45;2.53;;;;;;;8.66;94.14;95938.59;5071160;28;24945;-75
2022/01/03 06:40:02;;;;;;;9.32;2.33;;;;;;;8.63;94.25;95944.72;5071548;28;24419;-76
2022/01/03 06:42:28;;;;;;;10.82;2.25;;;;;;;8.61;94.52;95941.41;5071602;28;24469;-75
2022/01/03 06:44:55;;;;;;;8.52;2.13;;;;;;;8.64;94.78;95949.00;5071466;28;24422;-76
2022/01/03 06:47:21;;;;;;;7.30;2.03;;;;;;;8.72;94.05;95951.19;5071124;28;24418;-76
2022/01/03 06:49:48;;;;;;;7.93;2.15;;;;;;;8.66;93.96;95947.16;5071184;28;24994;-75
2022/01/03 06:52:16;;;;;;;5.03;2.00;;;;;;;8.70;93.43;95950.41;5070935;28;24820;-75
2022/01/03 06:54:43;;;;;;;7.82;2.72;;;;;;;8.68;95.12;95962.59;5071103;28;24426;-76
2022/01/03 06:57:10;;;;;;;11.85;2.22;;;;;;;8.64;96.61;95954.16;5070862;28;20753;-76
2022/01/03 06:59:36;;;;;;;10.38;2.53;;;;;;;8.53;96.88;95943.56;5071348;28;24473;-76
2022/01/03 07:02:04;;;;;;;8.27;2.40;;;;;;;8.50;97.10;95945.47;5071114;28;24427;-76
2022/01/03 07:04:30;;;;;;;6.82;2.30;;;;;;;8.49;97.82;95947.19;5071439;28;20765;-76
2022/01/03 07:06:57;;;;;;;13.25;2.40;;;;;;;8.43;98.09;95940.63;5070725;28;24498;-75
2022/01/03 07:09:24;;;;;;;8.90;2.25;;;;;;;8.42;98.64;95940.69;5070792;28;24812;-76
2022/01/03 07:11:51;;;;;;;7.43;3.05;;;;;;;8.38;98.94;95940.03;5070953;28;21104;-75
2022/01/03 07:19:50;;;;;;;11.87;4.60;;;;;;;8.35;100.00;95940.16;5070478;28;24492;-75
2022/01/03 07:22:16;;;;;;;9.07;3.70;;;;;;;8.34;100.00;95950.53;5070719;28;21332;-74
2022/01/03 07:24:44;;;;;;;8.97;4.30;;;;;;;8.24;100.00;95950.19;5070545;28;24940;-77
2022/01/03 07:27:12;;;;;;;8.60;3.95;;;;;;;8.25;100.00;95954.41;5071072;28;24481;-75
2022/01/03 07:29:39;;;;;;;12.88;4.40;;;;;;;8.11;100.00;95959.44;5070599;28;24434;-76
2022/01/03 07:32:07;;;;;;;15.55;5.80;;;;;;;8.11;100.00;95954.28;5070295;28;24425;-75
2022/01/03 07:34:34;;;;;;;7.15;2.80;;;;;;;8.03;100.00;95957.25;5070576;28;25010;-75
2022/01/03 07:37:00;;;;;;;12.02;2.50;;;;;;;8.03;100.00;95962.41;5070483;28;24442;-75
2022/01/03 07:39:28;;;;;;;8.55;2.60;;;;;;;8.04;100.00;95950.34;5070883;28;24422;-75
2022/01/03 07:41:56;;;;;;;5.65;2.08;;;;;;;8.03;100.00;95941.75;5070578;28;20828;-75
2022/01/03 07:44:23;;;;;;;8.13;2.38;;;;;;;8.02;100.00;95939.28;5070530;28;24537;-75
2022/01/03 07:46:49;;;;;;;12.40;2.38;;;;;;;7.98;100.00;95941.16;5070324;28;24419;-76
2022/01/03 07:49:16;;;;;;;8.38;3.03;;;;;;;7.89;100.00;95942.44;5070653;28;24426;-76
2022/01/03 07:51:42;;;;;;;6.78;2.22;;;;;;;7.89;100.00;95939.03;5070300;28;24423;-76
2022/01/03 07:54:09;;;;;;;5.43;1.77;;;;;;;7.92;100.00;95931.97;5070444;28;24446;-76
2022/01/03 07:56:35;;;;;;;5.57;2.13;;;;;;;7.98;100.00;95929.09;5069958;28;24426;-76
2022/01/03 07:59:05;;;;;;;5.55;2.00;;;;;;;7.96;100.00;95925.75;5070312;28;24430;-74
2022/01/03 08:01:31;;;;;;;7.53;2.38;;;;;;;8.04;100.00;95924.53;5070289;28;24690;-73
2022/01/03 08:03:58;;;;;;;14.02;2.70;;;;;;;8.00;100.00;95929.00;5069611;28;25002;-73
2022/01/03 08:06:24;;;;;;;6.07;2.20;;;;;;;7.97;100.00;95924.88;5069929;28;24419;-73
2022/01/03 08:08:51;;;;;;;11.88;2.40;;;;;;;7.97;100.00;95932.59;5069709;28;24430;-73
2022/01/03 08:11:18;;;;;;;5.22;1.90;;;;;;;8.01;100.00;95933.28;5074401;28;24895;-73
2022/01/03 08:13:44;;;;;;;8.90;2.50;;;;;;;8.03;100.00;95939.19;5074082;28;20869;-73
2022/01/03 08:16:12;;;;;;;7.93;2.38;;;;;;;8.04;100.00;95934.84;5074302;28;24409;-73
2022/01/03 08:18:38;;;;;;;9.40;2.70;;;;;;;8.12;100.00;95938.75;5074227;28;24464;-73
2022/01/03 08:21:05;;;;;;;6.28;2.35;;;;;;;8.13;100.00;95934.41;5074021;28;24422;-73
2022/01/03 08:23:32;;;;;;;8.47;2.50;;;;;;;8.03;100.00;95941.75;5070688;28;24476;-73
2022/01/03 08:25:59;;;;;;;8.35;2.30;;;;;;;8.05;100.00;95933.97;5073706;28;24808;-73
2022/01/03 08:28:26;;;;;;;8.57;2.30;;;;;;;8.08;100.00;95936.38;5073791;28;20761;-73
2022/01/03 08:30:52;;;;;;;5.70;2.00;;;;;;;8.16;100.00;95924.78;5073303;28;24484;-73
2022/01/03 08:33:20;;;;;;;8.07;2.28;;;;;;;8.11;100.00;95942.22;5073421;28;24447;-73
2022/01/03 08:35:46;;;;;;;6.80;2.40;;;;;;;8.16;100.00;95934.25;5073267;28;24434;-73
2022/01/03 08:38:13;;;;;;;9.73;2.42;;;;;;;8.13;100.00;95937.81;5073503;28;24422;-73
2022/01/03 08:40:40;;;;;;;7.13;2.20;;;;;;;8.16;100.00;95942.00;5073530;28;24473;-72
2022/01/03 08:43:07;;;;;;;11.07;2.73;;;;;;;8.12;100.00;95943.91;5073179;28;24418;-73
2022/01/03 08:45:34;;;;;;;5.45;1.90;;;;;;;8.18;100.00;95953.88;5071718;28;24484;-73
2022/01/03 08:48:01;;;;;;;11.33;5.10;;;;;;;8.24;100.00;95955.34;5073739;28;24415;-72
2022/01/03 08:50:28;;;;;;;7.75;2.25;;;;;;;8.43;97.86;95944.94;5073513;28;24779;-72
2022/01/03 08:52:55;;;;;;;8.82;2.90;;;;;;;8.40;100.00;95955.41;5072682;28;20926;-73
2022/01/03 08:55:21;;;;;;;7.35;2.20;;;;;;;8.38;100.00;95941.75;5072638;28;24997;-73
2022/01/03 08:57:51;;;;;;;5.93;2.20;;;;;;;8.44;97.68;95944.03;5072915;28;24425;-73
2022/01/03 09:00:18;;;;;;;10.55;2.75;;;;;;;8.55;97.05;95943.47;5073087;28;20765;-73
2022/01/03 09:02:45;;;;;;;7.90;2.22;;;;;;;8.52;99.15;95948.78;5073256;28;24422;-73
2022/01/03 09:05:12;;;;;;;8.63;2.42;;;;;;;8.50;99.67;95943.72;5072564;28;24426;-73
2022/01/03 09:07:39;;;;;;;10.98;2.60;;;;;;;8.56;99.35;95942.56;5078696;28;24430;-73
2022/01/03 09:10:07;;;;;;;7.35;1.90;;;;;;;8.54;98.02;95952.13;5093844;28;20800;-73
2022/01/03 09:12:34;;;;;;;7.30;2.63;;;;;;;8.57;97.62;95950.22;5093642;28;20796;-72
2022/01/03 09:15:01;;;;;;;6.75;1.65;;;;;;;8.62;99.00;95945.66;5065573;28;20787;-73
2022/01/03 09:17:28;;;;;;;9.70;5.07;;;;;;;8.63;97.58;95947.31;5053020;28;20882;-73
2022/01/03 09:19:54;;;;;;;9.88;3.17;;;;;;;8.60;99.44;95942.34;5052884;28;20774;-73
2022/01/03 09:22:26;;;;;;;7.32;2.65;;;;;;;8.60;99.53;95942.34;5057266;28;20784;-73
2022/01/03 09:28:48;;;;;;;6.57;2.30;;;;;;;8.69;96.94;95935.84;5071760;28;20680;-73
2022/01/03 09:30:25;;;;;;;7.85;2.42;;;;;;;8.72;97.16;95931.34;5072475;28;20871;-73
2022/01/03 09:32:51;;;;;;;9.88;2.47;;;;;;;8.79;96.71;95928.44;5072379;28;24472;-73
2022/01/03 09:35:18;;;;;;;5.80;2.33;;;;;;;8.75;97.58;95924.34;5071849;28;24470;-74
2022/01/03 09:37:44;;;;;;;10.07;4.03;;;;;;;8.82;96.98;95930.84;5087216;28;24430;-74
2022/01/03 09:40:13;;;;;;;8.65;4.15;;;;;;;8.80;97.66;95923.19;5072631;28;24993;-73
2022/01/03 09:42:40;;;;;;;6.70;2.25;;;;;;;8.79;97.05;95921.53;5072466;28;21123;-73
2022/01/03 09:45:11;;;;;;;10.00;2.97;;;;;;;8.79;97.42;95933.59;5059289;28;24973;-73
2022/01/03 09:47:39;;;;;;;8.85;2.92;;;;;;;8.86;97.89;95925.47;5052108;28;20713;-73
2022/01/03 09:50:07;;;;;;;7.88;3.15;;;;;;;8.86;97.13;95914.28;5052499;28;20771;-73
2022/01/03 09:52:34;;;;;;;5.45;2.30;;;;;;;8.93;96.03;95919.03;5051983;28;21192;-73
2022/01/03 09:55:01;;;;;;;14.52;3.40;;;;;;;8.85;97.63;95921.19;5069243;28;20781;-72
2022/01/03 09:57:31;;;;;;;14.40;5.00;;;;;;;8.88;96.99;95920.19;5071320;28;20762;-73
2022/01/03 09:59:59;;;;;;;9.50;2.90;;;;;;;8.86;98.19;95914.28;5071825;28;20796;-73
2022/01/03 10:02:27;;;;;;;6.55;2.08;;;;;;;8.87;98.86;95923.72;5071819;28;20806;-73
2022/01/03 10:04:54;;;;;;;9.88;2.80;;;;;;;8.87;99.36;95921.97;5071394;28;20841;-73
2022/01/03 10:07:22;;;;;;;6.88;2.08;;;;;;;8.94;98.06;95928.47;5064064;28;20794;-73
2022/01/03 10:09:48;;;;;;;6.60;2.53;;;;;;;8.95;97.28;95924.97;5052181;28;20763;-73
2022/01/03 10:12:16;;;;;;;8.95;2.45;;;;;;;9.00;97.14;95916.13;5052014;28;21180;-74
2022/01/03 10:14:45;;;;;;;6.90;2.40;;;;;;;9.01;97.92;95930.69;5064103;28;20792;-75
2022/01/03 10:17:12;;;;;;;5.82;2.03;;;;;;;9.02;96.56;95919.47;5071848;28;20828;-73
2022/01/03 10:19:52;;;;;;;7.45;2.30;;;;;;;9.01;96.94;95926.38;5072192;28;20761;-73
2022/01/03 10:22:24;;;;;;;6.00;1.90;;;;;;;9.07;96.77;95914.88;5071218;28;20651;-73
2022/01/03 10:24:51;;;;;;;7.90;2.35;;;;;;;8.98;97.77;95916.22;5074237;28;20678;-73
2022/01/03 10:27:18;;;;;;;6.10;1.88;;;;;;;9.04;98.17;95912.44;5071302;28;20761;-73
2022/01/03 10:29:55;;;;;;;7.20;2.25;;;;;;;9.04;97.76;95915.03;5070959;28;24983;-73
2022/01/03 10:32:27;;;;;;;7.97;2.30;;;;;;;9.07;97.13;95920.03;5071018;28;20730;-73
2022/01/03 10:34:54;;;;;;;5.70;1.92;;;;;;;9.06;97.25;95919.22;5070878;28;20776;-73
2022/01/03 10:37:21;;;;;;;6.80;2.45;;;;;;;9.03;98.26;95923.72;5054812;28;24434;-73
2022/01/03 10:39:47;;;;;;;7.07;2.10;;;;;;;9.01;97.58;95917.78;5069356;28;24430;-73
2022/01/03 10:42:16;;;;;;;5.93;2.10;;;;;;;9.08;97.77;95912.19;5071363;28;24812;-73
2022/01/03 10:44:43;;;;;;;5.88;2.00;;;;;;;9.08;97.91;95909.59;5070175;28;20760;-73
2022/01/03 10:47:15;;;;;;;10.05;2.40;;;;;;;9.15;97.05;95912.69;5071087;28;24426;-73
2022/01/03 10:49:44;;;;;;;5.90;2.40;;;;;;;9.10;97.85;95912.97;5071206;28;24480;-73
2022/01/03 10:52:12;;;;;;;8.27;2.45;;;;;;;9.12;98.87;95905.97;5069858;28;20765;-73
2022/01/03 10:54:40;;;;;;;5.95;2.05;;;;;;;9.16;98.10;95901.47;5068306;28;20797;-73
2022/01/03 10:57:07;;;;;;;5.00;2.30;;;;;;;9.26;96.67;95899.19;5070908;28;24815;-73
2022/01/03 10:59:35;;;;;;;6.65;2.22;;;;;;;9.30;96.52;95891.16;5070848;28;20773;-73
2022/01/03 11:02:04;;;;;;;9.70;2.10;;;;;;;9.33;95.84;95901.34;5071000;28;20749;-73
2022/01/03 11:04:38;;;;;;;6.40;2.10;;;;;;;9.31;97.18;95889.44;5070401;28;20753;-73
2022/01/03 11:13:13;;;;;;;6.20;1.88;;;;;;;9.45;94.75;95880.00;5050931;28;20651;-73
2022/01/03 11:15:41;;;;;;;6.53;1.80;;;;;;;9.54;93.30;95877.81;5062026;28;20697;-73
2022/01/03 11:18:12;;;;;;;7.68;2.38;;;;;;;9.60;93.27;95875.72;5070996;28;20744;-73
2022/01/03 11:20:41;;;;;;;9.85;2.00;;;;;;;9.54;92.25;95880.38;5070826;28;20761;-73
2022/01/03 11:23:08;;;;;;;7.32;1.73;;;;;;;9.61;91.38;95871.38;5067513;28;20771;-73
2022/01/03 11:25:36;;;;;;;5.97;1.92;;;;;;;9.58;92.26;95872.38;5069100;28;20791;-73
2022/01/03 11:28:04;;;;;;;9.57;2.22;;;;;;;9.63;92.02;95864.34;5070309;28;20799;-73
2022/01/03 11:30:32;;;;;;;7.28;1.70;;;;;;;9.63;89.93;95862.56;5070239;28;21200;-73
2022/01/03 11:33:00;;;;;;;5.70;2.03;;;;;;;9.58;89.30;95868.94;5070534;28;24426;-73
2022/01/03 11:35:27;;;;;;;6.65;2.25;;;;;;;9.51;89.72;95870.22;5069680;28;21181;-72
2022/01/03 11:37:55;;;;;;;4.77;1.40;;;;;;;9.52;83.73;95853.78;5070465;28;20753;-73
2022/01/03 11:40:22;;;;;;;5.68;1.60;;;;;;;9.43;86.51;95858.56;5053211;28;20816;-74
2022/01/03 11:42:49;;;;;;;4.63;1.60;;;;;;;9.38;88.44;95860.59;5050509;28;20771;-73
2022/01/03 11:45:15;;;;;;;4.15;1.88;;;;;;;9.33;85.63;95852.25;5055328;28;24426;-73
2022/01/03 11:47:42;;;;;;;3.47;1.20;;;;;;;9.34;86.25;95848.72;5050242;28;24419;-72
2022/01/03 11:50:10;;;;;;;6.65;1.58;;;;;;;9.33;87.20;95847.06;5050465;28;20767;-73
2022/01/03 11:52:40;;;;;;;5.38;1.40;;;;;;;9.29;86.34;95837.00;5054996;28;24438;-72
2022/01/03 11:55:10;;;;;;;3.83;1.42;;;;;;;9.28;86.96;95841.34;5083572;22;21359;-76
2022/01/03 11:58:10;;;;;;;13.67;1.97;;;;;;;9.32;86.77;95835.06;5069999;28;24414;-77
2022/01/03 12:03:58;;;;;;;6.65;2.25;;;;;;;9.31;89.72;95837.75;5069362;28;24779;-76